Tiempo atmosférico en la estación meteorológica de La Póveda de Soria, Barriomartín, Soria (1260 m.)



Fecha
DESCASC
Temp. máxima en grados centígrados (hora)
DESCASC
Temp. mínima en grados centígrados (hora)
DESCASC
Temp. media en grados centígrados
DESCASC
Racha de viento máxima en m/sg (hora)
DESCASC
Velocidad máxima media en intervalos de 10 minutos(hora)
DESCASC
Precipitaciones diarias en mm
DESCASC
Precipitaciones de 00:00 a 06:00 en mm
DESCASC
Precipitaciones de 06:00 a 12:00 en mm
DESCASC
Precipitaciones de 12:00 a 18:00 en mm
DESCASC
Precipitaciones de 18:00 a 24:00 en mm
DESCASC
26-03-2020 4.9 (15:30) -1.4 (23:59) 1.8 15.83 (11:40) 8.89 (13:20) 0 0 0 0 0
25-03-2020 10.6 (13:50) -0.6 (07:30) 5 9.17 (14:30) 5.83 (14:20) 0.2 0 0.2 0 0
24-03-2020 9.4 (15:30) 3.2 (21:40) 6.3 7.5 (11:20) 4.17 (16:40) 0 0 0 0 0
23-03-2020 8.7 (13:50) 4.4 (00:10) 6.5 7.5 (09:50) 4.17 (10:20) 0.2 0 0 0.2 0
22-03-2020 9.9 (11:30) 2.1 (21:30) 6 8.33 (16:10) 4.72 (16:10) 0 0 0 0 0
21-03-2020 9.6 (16:30) 1.8 (00:00) 5.7 6.39 (16:40) 3.61 (12:50) 0 0 0 0 0
20-03-2020 9.7 (12:40) 0.4 (00:00) 5 6.67 (13:10) 4.17 (13:10) 0 0 0 0 0
19-03-2020 12.9 (14:00) 1.2 (00:00) 7 7.5 (14:00) 4.44 (14:00) 0 0 0 0 0
18-03-2020 13.3 (13:40) 1.8 (00:00) 7.6 4.17 (11:40) 2.78 (11:40) 0 0 0 0 0
17-03-2020 7.6 (15:30) 1.9 (00:00) 4.7 13.33 (00:40) 7.5 (00:40) 0.2 0 0.2 0 0
16-03-2020 5.3 (00:00) -0.6 (-00:0) 2.4 13.89 (18:50) 9.17 (17:20) 37.6 11.2 0.4 8.6 17.4
15-03-2020 16.1 (13:10) -0.2 (00:00) 8 14.17 (19:30) 8.61 (19:30) 20.6 0 0 4.4 16.2
14-03-2020 15.8 (15:40) -0.2 (00:00) 7.8 6.39 (13:20) 4.17 (01:50) 0 0 0 0 0
13-03-2020 12.6 (15:00) 3.5 (23:40) 8.1 11.11 (04:40) 7.22 (05:10) 0 0 0 0 0
12-03-2020 22.9 (15:00) 5.3 (00:00) 14.1 11.11 (22:20) 7.22 (22:10) 0 0 0 0 0
11-03-2020 22.9 (15:40) 3.4 (00:00) 13.1 9.17 (14:30) 5 (14:50) 0 0 0 0 0
10-03-2020 17.6 (16:50) 4.1 (00:00) 10.9 7.5 (10:20) 5 (10:20) 0 0 0 0 0
09-03-2020 7.1 (15:30) 2.3 (00:00) 4.7 13.06 (08:20) 6.67 (05:10) 0 0 0 0 0
08-03-2020 12.6 (17:00) -3.2 (-00:0) 4.7 8.33 (18:20) 4.44 (18:00) 0 0 0 0 0
07-03-2020 6.4 (14:20) -0.8 (-00:0) 2.8 16.67 (07:20) 9.72 (02:20) 0.8 0.2 0.6 0 0
06-03-2020 3.2 (09:50) -0.9 (-00:0) 1.2 17.78 (15:30) 10.83 (19:50) 0.6 0 0.2 0.4 0
05-03-2020 9.9 (14:20) 0.4 (00:00) 5.1 17.78 (13:30) 8.61 (13:50) 6.4 0.6 4.6 0.2 1
04-03-2020 14.3 (11:30) 3.3 (02:30) 8.8 11.94 (15:40) 6.94 (15:40) 0 0 0 0 0
03-03-2020 13.7 (16:00) 0.2 (00:00) 6.9 22.78 (13:50) 9.72 (13:50) 1.8 0 1.2 0.6 0
02-03-2020 7 (03:40) 0 (00:00) 3.5 24.72 (01:40) 11.11 (01:50) 30.6 24.8 1.4 4.4 0
01-03-2020 11.6 (15:40) 3.6 (00:00) 7.6 18.89 (13:50) 10 (14:00) 14.6 0.4 0.6 1.6 12
29-02-2020 10.2 (15:40) 4.5 (00:00) 7.3 17.22 (10:10) 7.5 (10:00) 1.2 0 0.4 0.8 0
28-02-2020 16.2 (15:20) -1.2 (-00:0) 7.5 8.33 (15:20) 5 (15:20) 0 0 0 0 0

Gráficas

Temp. máximas Temp. mínimas Temp. medias Precipitaciones Rachas de viento máximas Velocidades máximas media en intervalos de 10 minutos

Datos horarios

Fecha y hora oficial Temperatura (ºC) Velocidad del viento (km/h) Dirección del viento Racha (km/h) Dirección de racha Precipitación (mm) Presión (hPa) Tendencia (hPa) Humedad (%)
2020-03-28 23:00:00 2 6 Norte 14 Norte 0 -- -- 79
2020-03-28 22:00:00 3.1 10 Norte 15 Norte 0 -- -- 75
2020-03-28 21:00:00 4.7 10 Norte 16 Norte 0 -- -- 70
2020-03-28 20:00:00 7.6 8 Noroeste 14 Noroeste 0 -- -- 61
2020-03-28 19:00:00 9.5 7 Este 16 Nordeste 0 -- -- 54
2020-03-28 18:00:00 10.9 0 Calma 13 Sudeste 0 -- -- 49
2020-03-28 17:00:00 10.7 8 Sudeste 14 Sudeste 0 -- -- 48
2020-03-28 16:00:00 11.1 6 Sur 15 Sudeste 0 -- -- 47
2020-03-28 15:00:00 11.7 4 Sudoeste 23 Sudeste 0 -- -- 46
2020-03-28 14:00:00 12.8 10 Sur 22 Sudeste 0 -- -- 46
2020-03-28 13:00:00 12 9 Sur 23 Sudeste 0 -- -- 47
2020-03-28 12:00:00 11.7 8 Sur 19 Sur 0 -- -- 47
2020-03-28 11:00:00 10.2 8 Sur 18 Sur 0 -- -- 46
2020-03-28 10:00:00 8.6 3 Sur 8 Sudeste 0 -- -- 51
2020-03-28 09:00:00 4.6 2 Nordeste 10 Norte 0 -- -- 65
2020-03-28 08:00:00 0.3 7 Norte 12 Norte 0 -- -- 76
2020-03-28 07:00:00 -1.9 7 Norte 13 Norte 0 -- -- 81
2020-03-28 06:00:00 -2.2 7 Norte 11 Norte 0 -- -- 80
2020-03-28 05:00:00 -2.3 7 Norte 12 Norte 0 -- -- 76
2020-03-28 04:00:00 -2.1 7 Norte 13 Norte 0 -- -- 71
2020-03-28 03:00:00 -2 6 Norte 11 Norte 0 -- -- 68
2020-03-28 02:00:00 -1.2 9 Norte 13 Norte 0 -- -- 64
2020-03-28 01:00:00 -1.5 7 Norte 12 Norte 0 -- -- 64
2020-03-28 00:00:00 -1 8 Norte 14 Norte 0 -- -- 67
2020-03-27 23:00:00 -0.1 9 Norte 17 Norte 0 -- -- 69
2020-03-27 22:00:00 -0.2 8 Norte 15 Norte 0 -- -- 72
2020-03-27 21:00:00 0.9 7 Norte 11 Norte 0 -- -- 68
2020-03-27 20:00:00 3.5 4 Noroeste 16 Este 0 -- -- 55
2020-03-27 19:00:00 5.6 9 Este 20 Nordeste 0 -- -- 47
2020-03-27 18:00:00 6.8 11 Este 22 Este 0 -- -- 45
2020-03-27 17:00:00 7.6 9 Este 23 Nordeste 0 -- -- 40
2020-03-27 16:00:00 7.8 7 Este 23 Este 0 -- -- 42
2020-03-27 15:00:00 7.7 10 Este 22 Este 0 -- -- 45
2020-03-27 14:00:00 7.4 10 Sudeste 24 Este 0 -- -- 48
2020-03-27 13:00:00 7.3 5 Sur 19 Sudeste 0 -- -- 47
2020-03-27 12:00:00 6.8 9 Sur 19 Sudeste 0 -- -- 50
2020-03-27 11:00:00 4.7 3 Oeste 14 Nordeste 0 -- -- 57
2020-03-27 10:00:00 2.2 10 Noroeste 17 Noroeste 0 -- -- 64
2020-03-27 09:00:00 0.6 4 Nordeste 15 Nordeste 0 -- -- 69
2020-03-27 08:00:00 -2 0 Calma 13 Noroeste 0 -- -- 82
2020-03-27 07:00:00 -3.2 5 Noroeste 12 Noroeste 0 -- -- 83
2020-03-27 06:00:00 -2.1 5 Nordeste 30 Norte 0 -- -- 77
2020-03-27 05:00:00 -2.3 17 Noroeste 36 Noroeste 0 -- -- 78
2020-03-27 04:00:00 -2.6 21 Noroeste 28 Noroeste 0 -- -- 77
2020-03-27 03:00:00 -2.8 14 Noroeste 23 Norte 0 -- -- 74
2020-03-27 02:00:00 -2.7 9 Norte 17 Norte 0 -- -- 75
2020-03-27 01:00:00 -2 11 Norte 28 Norte 0 -- -- 70
2020-03-27 00:00:00 -1.4 15 Norte 40 Norte 0 -- -- 67
2020-03-26 23:00:00 -1.1 22 Norte 40 Norte 0 -- -- 75
2020-03-26 22:00:00 -0.7 19 Norte 43 Norte 0 -- -- 71
2020-03-26 21:00:00 -0.1 17 Norte 33 Norte 0 -- -- 70
2020-03-26 20:00:00 0.6 24 Norte 42 Norte 0 -- -- 68
2020-03-26 19:00:00 1.7 30 Norte 41 Norte 0 -- -- 61
2020-03-26 18:00:00 2.6 22 Norte 35 Noroeste 0 -- -- 56
2020-03-26 17:00:00 3.7 18 Norte 36 Norte 0 -- -- 56
2020-03-26 16:00:00 4.9 17 Norte 46 Norte 0 -- -- 56
2020-03-26 15:00:00 4.5 29 Norte 48 Norte 0 -- -- 57
2020-03-26 14:00:00 4.4 25 Norte 56 Noroeste 0 -- -- 61
2020-03-26 13:00:00 3.6 31 Norte 55 Norte 0 -- -- 68
2020-03-26 12:00:00 2.2 27 Norte 57 Norte 0 -- -- 71
2020-03-26 11:00:00 1.5 23 Norte 51 Norte 0 -- -- 75
2020-03-26 10:00:00 1.7 26 Norte 52 Norte 0 -- -- 70
2020-03-26 09:00:00 1.6 19 Norte 47 Norte 0 -- -- 77
2020-03-26 08:00:00 1.3 21 Norte 54 Norte 0 -- -- 79
2020-03-26 07:00:00 1.1 21 Norte 47 Norte 0 -- -- 79
2020-03-26 06:00:00 1.2 22 Norte 39 Norte 0 -- -- 85
2020-03-26 05:00:00 0.2 13 Norte 41 Norte 0 -- -- 85
2020-03-26 04:00:00 -0.1 17 Norte 29 Noroeste 0 -- -- 81
2020-03-26 03:00:00 -0.9 10 Noroeste 27 Norte 0 -- -- 81
2020-03-26 02:00:00 -0.2 19 Norte 42 Norte 0 -- -- 79
2020-03-26 01:00:00 0.6 21 Norte 37 Norte 0 -- -- 74
2020-03-26 00:00:00 1.5 14 Noroeste 25 Norte 0 -- -- 72
2020-03-25 23:00:00 2.3 15 Norte 29 Norte 0 -- -- 74
2020-03-25 22:00:00 2.5 4 Norte 20 Norte 0 -- -- 65
2020-03-25 21:00:00 3.5 3 Norte 8 Norte 0 -- -- 65
2020-03-25 20:00:00 5.6 2 Norte 17 Noroeste 0 -- -- 64
2020-03-25 19:00:00 7.4 12 Norte 28 Noroeste 0 -- -- 59
2020-03-25 18:00:00 10.2 12 Norte 29 Norte 0 -- -- 48
2020-03-25 17:00:00 10 15 Norte 31 Norte 0 -- -- 47
2020-03-25 16:00:00 10 18 Norte 32 Norte 0 -- -- 45
2020-03-25 15:00:00 10.3 15 Norte 33 Norte 0 -- -- 47
2020-03-25 14:00:00 10.4 18 Norte 31 Noroeste 0 -- -- 47
2020-03-25 13:00:00 10 15 Norte 32 Norte 0 -- -- 53
2020-03-25 12:00:00 8.5 15 Norte 30 Norte 0 -- -- 59
2020-03-25 11:00:00 7.6 17 Norte 29 Noroeste 0 -- -- 66
2020-03-25 10:00:00 6.2 15 Norte 30 Norte 0 -- -- 74
2020-03-25 09:00:00 3.6 13 Norte 23 Norte 0.2 -- -- 94
2020-03-25 08:00:00 -0.4 3 Norte 5 Noroeste 0 -- -- 96
2020-03-25 07:00:00 -0.5 3 Noroeste 9 Norte 0 -- -- 94
2020-03-25 06:00:00 -0.2 6 Norte 9 Norte 0 -- -- 94
2020-03-25 05:00:00 0.5 8 Norte 11 Norte 0 -- -- 94
2020-03-25 04:00:00 1.4 9 Norte 11 Norte 0 -- -- 94
2020-03-25 03:00:00 1.5 6 Norte 10 Norte 0 -- -- 93
2020-03-25 02:00:00 2.4 6 Norte 12 Norte 0 -- -- 92
2020-03-25 01:00:00 3.1 6 Norte 10 Norte 0 -- -- 92
2020-03-25 00:00:00 3.9 3 Norte 7 Noroeste 0 -- -- 91
2020-03-24 23:00:00 4.3 3 Noroeste 12 Norte 0 -- -- 90
2020-03-24 22:00:00 3.6 5 Norte 11 Noroeste 0 -- -- 87
2020-03-24 21:00:00 3.5 4 Norte 10 Norte 0 -- -- 86
2020-03-24 20:00:00 4.9 8 Norte 10 Norte 0 -- -- 81
2020-03-24 19:00:00 7.4 0 Calma 11 Nordeste 0 -- -- 70
2020-03-24 18:00:00 8.1 4 Nordeste 19 Nordeste 0 -- -- 65
2020-03-24 17:00:00 8.1 9 Nordeste 25 Nordeste 0 -- -- 72
2020-03-24 16:00:00 9.4 8 Nordeste 20 Este 0 -- -- 67
2020-03-24 15:00:00 8.5 9 Este 21 Nordeste 0 -- -- 65
2020-03-24 14:00:00 7.4 9 Este 19 Este 0 -- -- 74
2020-03-24 13:00:00 6.6 9 Sudeste 22 Este 0 -- -- 75
2020-03-24 12:00:00 6.5 10 Este 27 Sudeste 0 -- -- 75
2020-03-24 11:00:00 6.3 12 Este 24 Este 0 -- -- 73
2020-03-24 10:00:00 6.2 6 Nordeste 21 Este 0 -- -- 75
2020-03-24 09:00:00 6.4 9 Este 18 Sudeste 0 -- -- 75
2020-03-24 08:00:00 4.7 7 Sudeste 13 Sudeste 0 -- -- 84
2020-03-24 07:00:00 4.4 2 Sudeste 10 Este 0 -- -- 85
2020-03-24 06:00:00 3.7 4 Norte 8 Sudeste 0 -- -- 87
2020-03-24 05:00:00 5.2 5 Sudeste 17 Sudeste 0 -- -- 83
2020-03-24 04:00:00 5.5 4 Sudeste 15 Sur 0 -- -- 87
2020-03-24 03:00:00 5.5 4 Sur 9 Sur 0 -- -- 89
2020-03-24 02:00:00 5.5 3 Sur 12 Sudeste 0 -- -- 89
2020-03-24 01:00:00 5.7 3 Sur 16 Sudeste 0 -- -- 89
2020-03-24 00:00:00 6 6 Sudeste 21 Este 0 -- -- 88
2020-03-23 23:00:00 6.1 10 Este 21 Este 0 -- -- 86
2020-03-23 22:00:00 6.2 4 Sudeste 22 Este 0 -- -- 87
2020-03-23 21:00:00 6.4 4 Este 21 Este 0 -- -- 83
2020-03-23 20:00:00 6.7 2 Nordeste 17 Sudeste 0 -- -- 82
2020-03-23 19:00:00 7 3 Sudoeste 24 Este 0 -- -- 79
2020-03-23 18:00:00 7 10 Este 21 Sudeste 0 -- -- 80
2020-03-23 17:00:00 7.2 9 Este 24 Sudeste 0.2 -- -- 81
2020-03-23 16:00:00 8.5 14 Este 25 Este 0 -- -- 71
2020-03-23 15:00:00 8.6 11 Sudeste 24 Este 0 -- -- 70
2020-03-23 14:00:00 8.6 12 Este 25 Este 0 -- -- 69
2020-03-23 13:00:00 6.7 6 Este 23 Este 0 -- -- 82
2020-03-23 12:00:00 7.3 13 Sudeste 27 Este 0 -- -- 75
2020-03-23 11:00:00 7.3 13 Este 26 Nordeste 0 -- -- 74
2020-03-23 10:00:00 8 11 Nordeste 27 Este 0 -- -- 73
2020-03-23 09:00:00 6.4 8 Este 21 Este 0 -- -- 78
2020-03-23 08:00:00 5.1 4 Sudeste 22 Este 0 -- -- 86
2020-03-23 07:00:00 4.6 13 Nordeste 22 Este 0 -- -- 87
2020-03-23 06:00:00 4.6 9 Este 22 Este 0 -- -- 85
2020-03-23 05:00:00 4.9 12 Nordeste 25 Este 0 -- -- 84
2020-03-23 04:00:00 4.8 5 Este 20 Este 0 -- -- 85
2020-03-23 03:00:00 4.7 2 Norte 24 Nordeste 0 -- -- 86
2020-03-23 02:00:00 4.8 0 Calma 9 Oeste 0 -- -- 84
2020-03-23 01:00:00 5 3 Este 13 Sur 0 -- -- 83
2020-03-23 00:00:00 4.5 3 Sudoeste 16 Sudoeste 0 -- -- 84
2020-03-22 23:00:00 4.2 8 Norte 15 Norte 0 -- -- 85
2020-03-22 22:00:00 3.2 7 Noroeste 13 Norte 0 -- -- 87
2020-03-22 21:00:00 2.6 5 Norte 9 Norte 0 -- -- 85
2020-03-22 20:00:00 4.9 4 Norte 15 Nordeste 0 -- -- 76
2020-03-22 19:00:00 7.6 6 Nordeste 21 Este 0 -- -- 67
2020-03-22 18:00:00 8.5 12 Este 24 Este 0 -- -- 62
2020-03-22 17:00:00 9.1 13 Este 30 Este 0 -- -- 59
2020-03-22 16:00:00 9.2 14 Este 28 Este 0 -- -- 63
2020-03-22 15:00:00 9.7 14 Este 24 Este 0 -- -- 65
2020-03-22 14:00:00 9.1 10 Nordeste 21 Nordeste 0 -- -- 64
2020-03-22 13:00:00 9.2 11 Este 22 Este 0 -- -- 67
2020-03-22 12:00:00 9.3 8 Nordeste 21 Nordeste 0 -- -- 67
2020-03-22 11:00:00 8.7 11 Nordeste 20 Norte 0 -- -- 70
2020-03-22 10:00:00 9 12 Este 20 Nordeste 0 -- -- 69
2020-03-22 09:00:00 6.5 3 Norte 8 Norte 0 -- -- 82
2020-03-22 08:00:00 5.8 3 Nordeste 10 Sudeste 0 -- -- 82
2020-03-22 07:00:00 5.8 0 Calma 15 Oeste 0 -- -- 85
2020-03-22 06:00:00 6 11 Noroeste 23 Noroeste 0 -- -- 83
2020-03-22 05:00:00 5.2 5 Norte 10 Norte 0 -- -- 91
2020-03-22 04:00:00 4.6 6 Norte 12 Norte 0 -- -- 93
2020-03-22 03:00:00 3.9 0 Calma 5 Norte 0 -- -- 91
2020-03-22 02:00:00 5.7 0 Calma 4 Sur 0 -- -- 90
2020-03-22 01:00:00 6.1 2 Sur 5 Sur 0 -- -- 90
2020-03-22 00:00:00 6.1 3 Sur 5 Sudoeste 0 -- -- 88
2020-03-21 23:00:00 6.2 0 Calma 4 Sudeste 0 -- -- 86
2020-03-21 22:00:00 6.4 3 Sudeste 6 Sudeste 0 -- -- 86
2020-03-21 21:00:00 6.6 3 Sudeste 13 Sur 0 -- -- 84
2020-03-21 20:00:00 6.9 9 Sur 16 Sur 0 -- -- 80
2020-03-21 19:00:00 7.6 9 Sur 17 Sur 0 -- -- 77
2020-03-21 18:00:00 8.2 8 Sur 17 Sudeste 0 -- -- 72
2020-03-21 17:00:00 9.3 10 Sur 23 Sudeste 0 -- -- 66
2020-03-21 16:00:00 9.2 9 Sudeste 17 Sudeste 0 -- -- 70
2020-03-21 15:00:00 8.4 10 Sur 19 Sudeste 0 -- -- 75
2020-03-21 14:00:00 7.1 10 Sur 21 Sur 0 -- -- 81
2020-03-21 13:00:00 7.3 10 Sur 22 Sur 0 -- -- 80
2020-03-21 12:00:00 7.2 9 Sur 18 Sudeste 0 -- -- 79
2020-03-21 11:00:00 7.5 9 Sur 15 Sur 0 -- -- 81
2020-03-21 10:00:00 5.9 5 Sur 10 Sur 0 -- -- 87
2020-03-21 09:00:00 4.4 0 Calma 3 Norte 0 -- -- 89
2020-03-21 08:00:00 3.3 0 Calma 4 Norte 0 -- -- 92
2020-03-21 07:00:00 2.6 3 Norte 8 Norte 0 -- -- 92
2020-03-21 06:00:00 1.8 5 Norte 7 Norte 0 -- -- 92
2020-03-21 05:00:00 2.3 3 Norte 4 Norte 0 -- -- 92
2020-03-21 04:00:00 3.1 0 Calma 11 Sudoeste 0 -- -- 84
2020-03-21 03:00:00 5.3 4 Oeste 10 Sudoeste 0 -- -- 91
2020-03-21 02:00:00 5.8 3 Sur 5 Sudeste 0 -- -- 93
2020-03-21 01:00:00 6 4 Sudeste 8 Sur 0 -- -- 92
2020-03-21 00:00:00 6.3 3 Sudeste 6 Sur 0 -- -- 91
2020-03-20 23:00:00 6.5 4 Sur 12 Sur 0 -- -- 90
2020-03-20 22:00:00 6.5 7 Sudoeste 11 Sudoeste 0 -- -- 89
2020-03-20 21:00:00 6.5 8 Sur 16 Sur 0 -- -- 89
2020-03-20 20:00:00 6.2 3 Sur 8 Sudoeste 0 -- -- 84
2020-03-20 19:00:00 7.8 5 Sur 12 Sur 0 -- -- 80
2020-03-20 18:00:00 8.1 9 Sur 18 Sur 0 -- -- 78
2020-03-20 17:00:00 8 13 Sur 23 Sur 0 -- -- 81
2020-03-20 16:00:00 8.6 12 Sur 21 Sur 0 -- -- 78
2020-03-20 15:00:00 8.9 14 Sur 23 Sur 0 -- -- 77
2020-03-20 14:00:00 8.7 10 Sur 24 Sudeste 0 -- -- 76
2020-03-20 13:00:00 9.7 13 Sur 24 Sur 0 -- -- 72
2020-03-20 12:00:00 7.9 10 Sur 20 Sur 0 -- -- 75
2020-03-20 11:00:00 6.9 10 Sur 17 Sudoeste 0 -- -- 78
2020-03-20 10:00:00 5.9 9 Sur 15 Sur 0 -- -- 84
2020-03-20 09:00:00 3.3 0 Calma 6 Norte 0 -- -- 87
2020-03-20 08:00:00 1.1 4 Norte 8 Norte 0 -- -- 93
2020-03-20 07:00:00 0.5 5 Norte 9 Norte 0 -- -- 92
2020-03-20 06:00:00 1.2 7 Norte 10 Norte 0 -- -- 91
2020-03-20 05:00:00 1 7 Norte 11 Norte 0 -- -- 94
2020-03-20 04:00:00 0.8 7 Norte 12 Norte 0 -- -- 93
2020-03-20 03:00:00 1.3 7 Norte 10 Norte 0 -- -- 93
2020-03-20 02:00:00 1.7 7 Norte 12 Norte 0 -- -- 93
2020-03-20 01:00:00 1.7 6 Norte 9 Norte 0 -- -- 92
2020-03-20 00:00:00 2 8 Norte 12 Norte 0 -- -- 90
2020-03-19 23:00:00 2.3 7 Norte 10 Norte 0 -- -- 89
2020-03-19 22:00:00 2.9 7 Norte 10 Norte 0 -- -- 87
2020-03-19 21:00:00 4.1 8 Norte 10 Norte 0 -- -- 85
2020-03-19 20:00:00 6.1 4 Norte 6 Norte 0 -- -- 78
2020-03-19 19:00:00 9.1 4 Sur 13 Sudeste 0 -- -- 64
2020-03-19 18:00:00 10.3 7 Sur 23 Sur 0 -- -- 62
2020-03-19 17:00:00 11.7 12 Sudeste 21 Sudeste 0 -- -- 55
2020-03-19 16:00:00 11.3 12 Sur 24 Sudeste 0 -- -- 49
2020-03-19 15:00:00 12.5 13 Sur 25 Sur 0 -- -- 55
2020-03-19 14:00:00 12.9 16 Sur 27 Sudoeste 0 -- -- 53
2020-03-19 13:00:00 11.8 8 Sur 22 Sur 0 -- -- 61
2020-03-19 12:00:00 11.4 5 Sur 13 Sur 0 -- -- 55
2020-03-19 11:00:00 10.2 5 Sudoeste 13 Sur 0 -- -- 56
2020-03-19 10:00:00 7.8 2 Sudoeste 8 Norte 0 -- -- 72
2020-03-19 09:00:00 3.8 5 Norte 12 Norte 0 -- -- 87
2020-03-19 08:00:00 1.8 8 Norte 13 Norte 0 -- -- 89
2020-03-19 07:00:00 1.3 7 Norte 12 Norte 0 -- -- 91
2020-03-19 06:00:00 1.7 9 Norte 13 Norte 0 -- -- 93
2020-03-19 05:00:00 2 6 Norte 12 Norte 0 -- -- 93
2020-03-19 04:00:00 2.7 8 Norte 12 Norte 0 -- -- 94
2020-03-19 03:00:00 3.1 5 Norte 13 Norte 0 -- -- 93
2020-03-19 02:00:00 3.8 12 Norte 14 Norte 0 -- -- 94
2020-03-19 01:00:00 4.1 7 Norte 10 Norte 0 -- -- 93
2020-03-19 00:00:00 4.7 8 Norte 10 Norte 0 -- -- 93
2020-03-18 23:00:00 5.2 7 Norte 10 Norte 0 -- -- 92
2020-03-18 22:00:00 5.7 7 Norte 12 Norte 0 -- -- 90
2020-03-18 21:00:00 6.5 6 Norte 11 Norte 0 -- -- 88
2020-03-18 20:00:00 7.9 6 Norte 9 Norte 0 -- -- 83
2020-03-18 19:00:00 10.8 4 Nordeste 9 Norte 0 -- -- 74
2020-03-18 18:00:00 12.5 4 Sur 8 Sur 0 -- -- 64
2020-03-18 17:00:00 13 4 Sur 10 Sur 0 -- -- 62
2020-03-18 16:00:00 13 5 Sur 10 Sur 0 -- -- 64
2020-03-18 15:00:00 12.9 6 Sur 12 Sur 0 -- -- 59
2020-03-18 14:00:00 12.9 6 Sur 11 Sur 0 -- -- 59
2020-03-18 13:00:00 12.5 7 Sudeste 15 Sur 0 -- -- 59
2020-03-18 12:00:00 12.1 6 Sudoeste 15 Sudeste 0 -- -- 65
2020-03-18 11:00:00 11.3 4 Sudoeste 12 Sur 0 -- -- 61
2020-03-18 10:00:00 8.3 3 Norte 13 Norte 0 -- -- 90
2020-03-18 09:00:00 4.6 9 Norte 13 Norte 0 -- -- 97
2020-03-18 08:00:00 2.8 8 Norte 13 Norte 0 -- -- 97
2020-03-18 07:00:00 2.6 5 Norte 14 Norte 0 -- -- 97
2020-03-18 06:00:00 2.5 10 Norte 14 Norte 0 -- -- 98
2020-03-18 05:00:00 1.9 7 Norte 13 Norte 0 -- -- 98
2020-03-18 04:00:00 1.8 7 Norte 11 Norte 0 -- -- 98
2020-03-18 03:00:00 2.2 8 Norte 11 Norte 0 -- -- 98
2020-03-18 02:00:00 2.6 6 Norte 11 Norte 0 -- -- 98
2020-03-18 01:00:00 2.7 5 Norte 9 Norte 0 -- -- 98
2020-03-18 00:00:00 3.2 5 Norte 10 Norte 0 -- -- 97
2020-03-17 23:00:00 4.1 5 Norte 8 Norte 0 -- -- 97
2020-03-17 22:00:00 5.8 0 Calma 6 Este 0 -- -- 97
2020-03-17 21:00:00 5.9 3 Sudoeste 6 Sur 0 -- -- 97
2020-03-17 20:00:00 6.1 3 Este 11 Nordeste 0 -- -- 97
2020-03-17 19:00:00 6.6 6 Este 12 Este 0 -- -- 96
2020-03-17 18:00:00 6.6 3 Norte 15 Este 0 -- -- 97
2020-03-17 17:00:00 7.3 4 Sudoeste 17 Sudeste 0 -- -- 96
2020-03-17 16:00:00 7.5 9 Sur 22 Sur 0 -- -- 95
2020-03-17 15:00:00 7.5 17 Sudeste 33 Sudeste 0 -- -- 95
2020-03-17 14:00:00 6.1 10 Este 19 Este 0 -- -- 97
2020-03-17 13:00:00 6 5 Este 19 Este 0 -- -- 98
2020-03-17 12:00:00 5.4 4 Nordeste 22 Nordeste 0 -- -- 98
2020-03-17 11:00:00 5.2 8 Norte 25 Norte 0 -- -- 96
2020-03-17 10:00:00 5 7 Noroeste 28 Nordeste 0 -- -- 97
2020-03-17 09:00:00 4.2 13 Norte 27 Norte 0 -- -- 97
2020-03-17 08:00:00 3.7 10 Norte 29 Nordeste 0 -- -- 97
2020-03-17 07:00:00 3.6 13 Norte 28 Nordeste 0.2 -- -- 97
2020-03-17 06:00:00 3.5 9 Norte 27 Nordeste 0 -- -- 97
2020-03-17 05:00:00 3.5 12 Norte 40 Noroeste 0 -- -- 97
2020-03-17 04:00:00 3.5 24 Noroeste 41 Norte 0 -- -- 97
2020-03-17 03:00:00 3.1 18 Norte 36 Noroeste 0 -- -- 97
2020-03-17 02:00:00 2.7 17 Norte 42 Norte 0 -- -- 97
2020-03-17 01:00:00 2.7 25 Norte 48 Norte 0 -- -- 96
2020-03-17 00:00:00 2 27 Norte 46 Norte 2.4 -- -- 97
2020-03-16 23:00:00 2.1 21 Norte 47 Nordeste 0.4 -- -- 96
2020-03-16 22:00:00 1.7 26 Norte 43 Nordeste 3.2 -- -- 97
2020-03-16 21:00:00 2.2 24 Norte 45 Nordeste 3.6 -- -- 97
2020-03-16 20:00:00 2.1 20 Nordeste 46 Norte 4.8 -- -- 96
2020-03-16 19:00:00 2.1 29 Norte 50 Norte 3 -- -- 93
2020-03-16 18:00:00 2 24 Norte 49 Norte 2.6 -- -- 92
2020-03-16 17:00:00 1.6 27 Norte 48 Norte 2.8 -- -- 94
2020-03-16 16:00:00 1 25 Norte 43 Norte 1.2 -- -- 97
2020-03-16 15:00:00 0.3 24 Norte 39 Norte 0.8 -- -- 98
2020-03-16 14:00:00 0 0 Calma -- -- 0.6 -- -- 98
2020-03-16 13:00:00 -0.3 0 Calma -- -- 0.6 -- -- 98
2020-03-16 12:00:00 -0.4 0 Calma -- -- 0.2 -- -- 97
2020-03-16 11:00:00 -0.5 0 Calma -- -- 0 -- -- 97
2020-03-16 10:00:00 -0.6 0 Calma -- -- 0 -- -- 97
2020-03-16 09:00:00 -0.5 0 Calma -- -- 0 -- -- 97
2020-03-16 08:00:00 -0.4 0 Calma -- -- 0 -- -- 97
2020-03-16 07:00:00 -0.2 5 Norte 22 Norte 0.2 -- -- 96
2020-03-16 06:00:00 0.1 14 Norte 22 Norte 0.2 -- -- 96
2020-03-16 05:00:00 0.2 12 Norte 25 Norte 0.4 -- -- 95
2020-03-16 04:00:00 0.7 12 Norte 28 Norte 1 -- -- 93
2020-03-16 03:00:00 0.6 15 Noroeste 21 Norte 4 -- -- 94
2020-03-16 02:00:00 2.4 10 Norte 18 Norte 1.8 -- -- 94
2020-03-16 01:00:00 4.4 9 Noroeste 14 Norte 3.8 -- -- 93
2020-03-16 00:00:00 5.3 6 Sur 11 Sudoeste 1.8 -- -- 94
2020-03-15 23:00:00 5.4 7 Noroeste 36 Sudoeste 3.6 -- -- 93
2020-03-15 22:00:00 6.1 0 Calma 15 Sudeste 1 -- -- 93
2020-03-15 21:00:00 6.5 4 Sudoeste 21 Norte 1.2 -- -- 90
2020-03-15 20:00:00 6.6 13 Noroeste 51 Oeste 6.8 -- -- 87
2020-03-15 19:00:00 7.8 10 Noroeste 46 Oeste 1.8 -- -- 84
2020-03-15 18:00:00 10.1 3 Este 12 Oeste 0.8 -- -- 83
2020-03-15 17:00:00 11.2 4 Oeste 20 Sudoeste 1.8 -- -- 79
2020-03-15 16:00:00 13 6 Sudeste 17 Sudeste 0 -- -- 68
2020-03-15 15:00:00 12 8 Este 24 Sudoeste 1.8 -- -- 71
2020-03-15 14:00:00 13.2 13 Oeste 35 Sudoeste 0 -- -- 58
2020-03-15 13:00:00 15.7 12 Sudoeste 31 Sudoeste 0 -- -- 54
2020-03-15 12:00:00 13.1 19 Sudeste 32 Sudeste 0 -- -- 60
2020-03-15 11:00:00 11.1 20 Sudeste 30 Sur 0 -- -- 63
2020-03-15 10:00:00 9.3 14 Sudeste 22 Sudeste 0 -- -- 64
2020-03-15 09:00:00 6.2 3 Sudeste 6 Norte 0 -- -- 58
2020-03-15 08:00:00 0.3 3 Norte 10 Norte 0 -- -- 80
2020-03-15 07:00:00 0.1 5 Norte 12 Norte 0 -- -- 78
2020-03-15 06:00:00 0.2 4 Norte 13 Norte 0 -- -- 78
2020-03-15 05:00:00 -0.1 6 Norte 10 Norte 0 -- -- 80
2020-03-15 04:00:00 0.2 7 Norte 10 Norte 0 -- -- 80
2020-03-15 03:00:00 1 9 Norte -- -- 0 -- -- 77
2020-03-15 02:00:00 1.2 8 Norte 13 Norte 0 -- -- 79
2020-03-15 01:00:00 1.4 8 Norte 12 Norte 0 -- -- 77
2020-03-15 00:00:00 1.5 7 Norte 11 Norte 0 -- -- 77
2020-03-14 23:00:00 2.3 7 Norte 11 Norte 0 -- -- 74
2020-03-14 22:00:00 3.1 8 Norte 15 Norte 0 -- -- 68
2020-03-14 21:00:00 4.8 11 Norte 15 Norte 0 -- -- 58
2020-03-14 20:00:00 6.6 9 Norte 15 Norte 0 -- -- 56
2020-03-14 19:00:00 10.1 5 Norte 14 Norte 0 -- -- 43
2020-03-14 18:00:00 13.3 9 Nordeste 20 Este 0 -- -- 35
2020-03-14 17:00:00 15 8 Este 22 Este 0 -- -- 33
2020-03-14 16:00:00 15.4 8 Sudeste 21 Sudeste 0 -- -- 33
2020-03-14 15:00:00 15.2 9 Este 16 Nordeste 0 -- -- 31
2020-03-14 14:00:00 14.6 8 Norte 23 Norte 0 -- -- 29
2020-03-14 13:00:00 14 9 Norte 22 Nordeste 0 -- -- 31
2020-03-14 12:00:00 12.9 13 Norte 22 Norte 0 -- -- 36
2020-03-14 11:00:00 12 10 Norte 20 Norte 0 -- -- 34
2020-03-14 10:00:00 10.2 8 Norte 15 Noroeste 0 -- -- 26
2020-03-14 09:00:00 4.9 8 Norte 16 Norte 0 -- -- 52
2020-03-14 08:00:00 1 10 Norte 17 Norte 0 -- -- 62
2020-03-14 07:00:00 -0.2 9 Norte 13 Norte 0 -- -- 70
2020-03-14 06:00:00 0.6 5 Norte 14 Norte 0 -- -- 74
2020-03-14 05:00:00 1.6 6 Noroeste 16 Nordeste 0 -- -- 79
2020-03-14 04:00:00 2 8 Norte 20 Norte 0 -- -- 85
2020-03-14 03:00:00 3.9 11 Norte 18 Noroeste 0 -- -- 87
2020-03-14 02:00:00 5.3 15 Norte 21 Norte 0 -- -- 90
2020-03-14 01:00:00 4.6 8 Norte 18 Norte 0 -- -- 91
2020-03-14 00:00:00 4.3 9 Norte 17 Norte 0 -- -- 96
2020-03-13 23:00:00 3.8 5 Norte 8 Norte 0 -- -- 92
2020-03-13 22:00:00 4.3 6 Norte 11 Norte 0 -- -- 90
2020-03-13 21:00:00 5.2 7 Norte 28 Norte 0 -- -- 88
2020-03-13 20:00:00 6.7 16 Norte 26 Norte 0 -- -- 85
2020-03-13 19:00:00 7.3 16 Norte 29 Norte 0 -- -- 84
2020-03-13 18:00:00 8.6 15 Norte 24 Norte 0 -- -- 80
2020-03-13 17:00:00 10.4 13 Norte 22 Norte 0 -- -- 73
2020-03-13 16:00:00 10.8 12 Norte 27 Noroeste 0 -- -- 74
2020-03-13 15:00:00 12.6 10 Norte 21 Noroeste 0 -- -- 69
2020-03-13 14:00:00 10.1 17 Norte 28 Norte 0 -- -- 76
2020-03-13 13:00:00 10.1 16 Norte 29 Noroeste 0 -- -- 76
2020-03-13 12:00:00 9.1 15 Norte 28 Norte 0 -- -- 76
2020-03-13 11:00:00 8 18 Norte 30 Norte 0 -- -- 78
2020-03-13 10:00:00 6.8 19 Norte 32 Norte 0 -- -- 81
2020-03-13 09:00:00 6.1 19 Norte 30 Norte 0 -- -- 84
2020-03-13 08:00:00 4.8 18 Norte 33 Norte 0 -- -- 90
2020-03-13 07:00:00 5 22 Norte 36 Norte 0 -- -- 91
2020-03-13 06:00:00 5.6 16 Norte 40 Norte 0 -- -- 89
2020-03-13 05:00:00 6 22 Norte 40 Norte 0 -- -- 87
2020-03-13 04:00:00 5.8 22 Norte 35 Norte 0 -- -- 89
2020-03-13 03:00:00 5.8 21 Norte 35 Norte 0 -- -- 90
2020-03-13 02:00:00 6.1 22 Norte 36 Norte 0 -- -- 90
2020-03-13 01:00:00 6.3 19 Norte 33 Norte 0 -- -- 89
2020-03-13 00:00:00 6.7 25 Norte 38 Norte 0 -- -- 88
2020-03-12 23:00:00 7.3 20 Norte 40 Norte 0 -- -- 88
2020-03-12 22:00:00 8 24 Norte 39 Norte 0 -- -- 86
2020-03-12 21:00:00 10.2 18 Norte 32 Norte 0 -- -- 79
2020-03-12 20:00:00 10.3 17 Norte 29 Noroeste 0 -- -- 80
2020-03-12 19:00:00 12.5 24 Norte 32 Norte 0 -- -- 72
2020-03-12 18:00:00 16.5 10 Norte 25 Noroeste 0 -- -- 57
2020-03-12 17:00:00 20.6 16 Sudoeste 30 Oeste 0 -- -- 36
2020-03-12 16:00:00 22.1 14 Sudoeste 37 Sudoeste 0 -- -- 34
2020-03-12 15:00:00 22.9 18 Sudoeste 29 Sudoeste 0 -- -- 35
2020-03-12 14:00:00 21.7 14 Oeste 30 Oeste 0 -- -- 35
2020-03-12 13:00:00 20.6 11 Sur 24 Sur 0 -- -- 48
2020-03-12 12:00:00 18.5 15 Sur 23 Sudeste 0 -- -- 49
2020-03-12 11:00:00 16.9 5 Sur 10 Sur 0 -- -- 53
2020-03-12 10:00:00 14.3 4 Sudeste 9 Norte 0 -- -- 62
2020-03-12 09:00:00 8.6 7 Norte 10 Norte 0 -- -- 82
2020-03-12 08:00:00 6.1 8 Norte 12 Norte 0 -- -- 86
2020-03-12 07:00:00 5.5 6 Norte 12 Norte 0 -- -- 85
2020-03-12 06:00:00 6 7 Norte 10 Norte 0 -- -- 83
2020-03-12 05:00:00 6.8 6 Norte 11 Norte 0 -- -- 79
2020-03-12 04:00:00 7.7 6 Norte 12 Norte 0 -- -- 75
2020-03-12 03:00:00 7.6 5 Norte 13 Norte 0 -- -- 75
2020-03-12 02:00:00 7.1 9 Norte 12 Norte 0 -- -- 73
2020-03-12 01:00:00 7.9 8 Norte 10 Norte 0 -- -- 67
2020-03-12 00:00:00 8.9 5 Norte 13 Norte 0 -- -- 64
2020-03-11 23:00:00 9.3 6 Norte 14 Norte 0 -- -- 64
2020-03-11 22:00:00 10.1 10 Norte 15 Norte 0 -- -- 62
2020-03-11 21:00:00 10.4 11 Norte 13 Norte 0 -- -- 60
2020-03-11 20:00:00 12 5 Norte 9 Norte 0 -- -- 54
2020-03-11 19:00:00 16.5 5 Sudoeste 17 Sudoeste 0 -- -- 42
2020-03-11 18:00:00 20.1 11 Oeste 23 Oeste 0 -- -- 31
2020-03-11 17:00:00 21.4 15 Oeste 30 Oeste 0 -- -- 28
2020-03-11 16:00:00 22.7 16 Sudoeste 31 Oeste 0 -- -- 27
2020-03-11 15:00:00 22.5 15 Sudoeste 33 Oeste 0 -- -- 26
2020-03-11 14:00:00 19.7 10 Sudeste 22 Sudeste 0 -- -- 25
2020-03-11 13:00:00 17.8 8 Sudeste 15 Sur 0 -- -- 40
2020-03-11 12:00:00 16.3 5 Sur 14 Sudeste 0 -- -- 40
2020-03-11 11:00:00 15.1 7 Sur 12 Sudoeste 0 -- -- 45
2020-03-11 10:00:00 13.2 4 Sudeste 9 Sudeste 0 -- -- 47
2020-03-11 09:00:00 8.7 3 Norte 12 Norte 0 -- -- 55
2020-03-11 08:00:00 3.5 5 Norte 10 Norte 0 -- -- 68
2020-03-11 07:00:00 3.7 4 Norte 8 Norte 0 -- -- 66
2020-03-11 06:00:00 4.2 5 Norte 14 Norte 0 -- -- 65
2020-03-11 05:00:00 3.7 6 Norte 14 Norte 0 -- -- 69
2020-03-11 04:00:00 4.6 11 Norte 16 Norte 0 -- -- 66
2020-03-11 03:00:00 4.5 12 Norte 15 Norte 0 -- -- 74
2020-03-11 02:00:00 4.8 11 Norte 14 Norte 0 -- -- 75
2020-03-11 01:00:00 4.4 7 Norte 13 Norte 0 -- -- 79
2020-03-11 00:00:00 5.5 7 Norte 13 Norte 0 -- -- 77
2020-03-10 23:00:00 6.1 6 Norte 14 Norte 0 -- -- 78
2020-03-10 22:00:00 6.3 11 Norte 17 Norte 0 -- -- 80
2020-03-10 21:00:00 8.1 10 Norte 14 Norte 0 -- -- 75
2020-03-10 20:00:00 10.5 7 Norte 14 Noroeste 0 -- -- 67
2020-03-10 19:00:00 13.9 9 Noroeste 15 Norte 0 -- -- 56
2020-03-10 18:00:00 16.7 10 Oeste 22 Oeste 0 -- -- 48
2020-03-10 17:00:00 17.5 12 Oeste 18 Oeste 0 -- -- 47
2020-03-10 16:00:00 17.3 7 Este 20 Sur 0 -- -- 48
2020-03-10 15:00:00 17.3 9 Sudeste 18 Sur 0 -- -- 49
2020-03-10 14:00:00 17.1 8 Sur 17 Sur 0 -- -- 48
2020-03-10 13:00:00 15.4 6 Sudeste 14 Sudeste 0 -- -- 48
2020-03-10 12:00:00 13.6 8 Sur 14 Sudeste 0 -- -- 53
2020-03-10 11:00:00 14.5 8 Noroeste 27 Noroeste 0 -- -- 52
2020-03-10 10:00:00 13.3 13 Noroeste 24 Noroeste 0 -- -- 49
2020-03-10 09:00:00 7.6 6 Noroeste 10 Noroeste 0 -- -- 52
2020-03-10 08:00:00 4.3 6 Norte 9 Norte 0 -- -- 56
2020-03-10 07:00:00 6.7 2 Nordeste 9 Noroeste 0 -- -- 46
2020-03-10 06:00:00 6.7 2 Este 19 Norte 0 -- -- 46
2020-03-10 05:00:00 7 9 Nordeste 17 Nordeste 0 -- -- 45
2020-03-10 04:00:00 6.9 10 Norte 24 Nordeste 0 -- -- 46
2020-03-10 03:00:00 5.6 6 Nordeste 21 Nordeste 0 -- -- 47
2020-03-10 02:00:00 5.2 8 Nordeste 24 Norte 0 -- -- 50
2020-03-10 01:00:00 4.8 13 Norte 26 Norte 0 -- -- 57
2020-03-10 00:00:00 4.5 15 Norte 31 Norte 0 -- -- 63
2020-03-09 23:00:00 4.3 15 Nordeste 37 Norte 0 -- -- 66
2020-03-09 22:00:00 3.6 20 Nordeste 35 Norte 0 -- -- 72
2020-03-09 21:00:00 3.4 13 Nordeste 36 Nordeste 0 -- -- 74
2020-03-09 20:00:00 3.8 19 Norte 33 Norte 0 -- -- 71
2020-03-09 19:00:00 4.5 19 Norte 37 Norte 0 -- -- 64
2020-03-09 18:00:00 5.6 18 Norte 39 Norte 0 -- -- 62
2020-03-09 17:00:00 6.2 22 Norte 39 Norte 0 -- -- 61
2020-03-09 16:00:00 7.1 22 Norte 41 Norte 0 -- -- 62
2020-03-09 15:00:00 6.6 13 Nordeste 37 Norte 0 -- -- 60
2020-03-09 14:00:00 5.9 15 Norte 40 Norte 0 -- -- 60
2020-03-09 13:00:00 5 16 Norte 37 Norte 0 -- -- 63
2020-03-09 12:00:00 5.1 13 Norte 33 Norte 0 -- -- 64
2020-03-09 11:00:00 4.2 20 Norte 44 Norte 0 -- -- 67
2020-03-09 10:00:00 3.6 8 Nordeste 29 Noroeste 0 -- -- 70
2020-03-09 09:00:00 2.9 9 Oeste 47 Oeste 0 -- -- 75
2020-03-09 08:00:00 2.4 10 Noroeste 33 Oeste 0 -- -- 84
2020-03-09 07:00:00 2.5 15 Noroeste 42 Noroeste 0 -- -- 81
2020-03-09 06:00:00 2.3 16 Noroeste 37 Noroeste 0 -- -- 91
2020-03-09 05:00:00 2.9 22 Norte 37 Noroeste 0 -- -- 91
2020-03-09 04:00:00 3.3 12 Norte 31 Norte 0 -- -- 91
2020-03-09 03:00:00 3.8 13 Norte 25 Norte 0 -- -- 91
2020-03-09 02:00:00 4.7 9 Norte 23 Norte 0 -- -- 90
2020-03-09 01:00:00 5.5 10 Norte 23 Noroeste 0 -- -- 84
2020-03-09 00:00:00 3.3 2 Nordeste 7 Norte 0 -- -- 87
2020-03-08 23:00:00 2.4 5 Noroeste 9 Norte 0 -- -- 87
2020-03-08 22:00:00 2.5 7 Norte 12 Norte 0 -- -- 83
2020-03-08 21:00:00 3.8 5 Norte 11 Norte 0 -- -- 76
2020-03-08 20:00:00 6.5 5 Norte 24 Oeste 0 -- -- 66
2020-03-08 19:00:00 9 14 Noroeste 30 Oeste 0 -- -- 56
2020-03-08 18:00:00 11.9 16 Noroeste 26 Oeste 0 -- -- 55
2020-03-08 17:00:00 12.6 14 Oeste 23 Oeste 0 -- -- 57
2020-03-08 16:00:00 12.1 12 Norte 24 Norte 0 -- -- 53
2020-03-08 15:00:00 12 12 Oeste 22 Oeste 0 -- -- 51
2020-03-08 14:00:00 12.3 8 Sudeste 17 Sudeste 0 -- -- 51
2020-03-08 13:00:00 10.5 6 Sudeste 14 Sudeste 0 -- -- 60
2020-03-08 12:00:00 8.9 7 Sudeste 13 Sudeste 0 -- -- 60
2020-03-08 11:00:00 6.9 4 Sur 10 Sur 0 -- -- 61
2020-03-08 10:00:00 5 3 Este 6 Sudeste 0 -- -- 66
2020-03-08 09:00:00 0.3 3 Norte 9 Norte 0 -- -- 82
2020-03-08 08:00:00 -3.1 3 Norte 13 Norte 0 -- -- 84
2020-03-08 07:00:00 -3.2 5 Noroeste 12 Norte 0 -- -- 86
2020-03-08 06:00:00 -3 7 Norte 10 Norte 0 -- -- 87
2020-03-08 05:00:00 -2.6 5 Norte 10 Norte 0 -- -- 87
2020-03-08 04:00:00 -2.1 6 Norte 11 Norte 0 -- -- 89
2020-03-08 03:00:00 -2 2 Noroeste 13 Norte 0 -- -- 90
2020-03-08 02:00:00 -1.3 10 Norte 13 Norte 0 -- -- 92
2020-03-08 01:00:00 -0.8 9 Norte 13 Norte 0 -- -- 93
2020-03-08 00:00:00 -0.8 6 Norte 12 Norte 0 -- -- 93
2020-03-07 23:00:00 -0.4 8 Norte 11 Norte 0 -- -- 93
2020-03-07 22:00:00 0.1 6 Norte 11 Norte 0 -- -- 91
2020-03-07 21:00:00 2.5 6 Oeste 13 Oeste 0 -- -- 88
2020-03-07 20:00:00 3.8 7 Norte 14 Norte 0 -- -- 84
2020-03-07 19:00:00 5.1 4 Norte 21 Oeste 0 -- -- 79
2020-03-07 18:00:00 6 11 Noroeste 32 Oeste 0 -- -- 78
2020-03-07 17:00:00 5.6 20 Norte 32 Norte 0 -- -- 81
2020-03-07 16:00:00 5.9 18 Norte 40 Norte 0 -- -- 81
2020-03-07 15:00:00 6.1 23 Norte 44 Norte 0 -- -- 81
2020-03-07 14:00:00 5.9 30 Norte 50 Norte 0 -- -- 81
2020-03-07 13:00:00 4.4 23 Norte 39 Noroeste 0 -- -- 88
2020-03-07 12:00:00 3.8 19 Norte 39 Norte 0 -- -- 91
2020-03-07 11:00:00 3.1 20 Norte 39 Norte 0.2 -- -- 91
2020-03-07 10:00:00 2.5 15 Norte 43 Norte 0 -- -- 92
2020-03-07 09:00:00 2.1 23 Norte 45 Norte 0 -- -- 91
2020-03-07 08:00:00 1.8 29 Norte 60 Norte 0.2 -- -- 90
2020-03-07 07:00:00 1.6 23 Norte 45 Noroeste 0.2 -- -- 89
2020-03-07 06:00:00 1.5 24 Norte 49 Norte 0.2 -- -- 86
2020-03-07 05:00:00 1 10 Norte 41 Norte 0 -- -- 86
2020-03-07 04:00:00 0.5 18 Norte 35 Norte 0 -- -- 84
2020-03-07 03:00:00 0.1 13 Norte 60 Norte 0 -- -- 79
2020-03-07 02:00:00 0.4 26 Norte 52 Norte 0 -- -- 82
2020-03-07 01:00:00 0.2 25 Norte 50 Noroeste 0 -- -- 87
2020-03-07 00:00:00 -0.1 20 Norte 37 Norte 0 -- -- 87
2020-03-06 23:00:00 -0.2 16 Norte 35 Noroeste 0 -- -- 86
2020-03-06 22:00:00 -0.7 19 Norte 47 Noroeste 0 -- -- 88
2020-03-06 21:00:00 -0.5 30 Norte 61 Norte 0 -- -- 86
2020-03-06 20:00:00 -0.5 34 Norte 60 Noroeste 0 -- -- 82
2020-03-06 19:00:00 0 23 Norte 58 Noroeste 0 -- -- 86
2020-03-06 18:00:00 0.9 30 Noroeste 62 Norte 0 -- -- 76
2020-03-06 17:00:00 1.2 27 Norte 61 Noroeste 0 -- -- 73
2020-03-06 16:00:00 1.8 30 Noroeste 64 Noroeste 0 -- -- 66
2020-03-06 15:00:00 1.8 27 Norte 59 Norte 0 -- -- 67
2020-03-06 14:00:00 1.5 25 Norte 51 Norte 0.2 -- -- 71
2020-03-06 13:00:00 0.8 20 Noroeste 54 Norte 0.2 -- -- 78
2020-03-06 12:00:00 -0.1 24 Norte 59 Norte 0.2 -- -- 83
2020-03-06 11:00:00 0.5 27 Norte 52 Norte 0 -- -- 79
2020-03-06 10:00:00 2.3 23 Noroeste 41 Noroeste 0 -- -- 70
2020-03-06 09:00:00 1.7 21 Noroeste 43 Noroeste 0 -- -- 73
2020-03-06 08:00:00 1.2 15 Noroeste 27 Norte 0 -- -- 79
2020-03-06 07:00:00 1.2 10 Noroeste 24 Noroeste 0 -- -- 84
2020-03-06 06:00:00 0.6 6 Noroeste 12 Sudoeste 0 -- -- 90
2020-03-06 05:00:00 0.5 4 Sur 12 Sudoeste 0 -- -- 87
2020-03-06 04:00:00 1 9 Sudoeste 27 Oeste 0 -- -- 84
2020-03-06 03:00:00 1 10 Noroeste 27 Oeste 0 -- -- 78
2020-03-06 02:00:00 -0.7 0 Calma 9 Oeste 0 -- -- 91
2020-03-06 01:00:00 0 0 Calma 14 Oeste 0 -- -- 89
2020-03-06 00:00:00 0.6 7 Noroeste 10 Norte 0 -- -- 93
2020-03-05 23:00:00 1.2 3 Norte 17 Norte 0 -- -- 90
2020-03-05 22:00:00 2 10 Norte 26 Norte 0 -- -- 90
2020-03-05 21:00:00 2.4 15 Norte 37 Norte 0 -- -- 90
2020-03-05 20:00:00 3.2 19 Norte 34 Norte 0.6 -- -- 87
2020-03-05 19:00:00 4.2 10 Norte 33 Noroeste 0.4 -- -- 84
2020-03-05 18:00:00 4.4 16 Noroeste 50 Noroeste 0.2 -- -- 85
2020-03-05 17:00:00 9.1 29 Noroeste 57 Noroeste 0 -- -- 57
2020-03-05 16:00:00 9.5 23 Noroeste 53 Oeste 0 -- -- 57
2020-03-05 15:00:00 9.7 25 Noroeste 56 Noroeste 0 -- -- 59
2020-03-05 14:00:00 9.3 27 Oeste 64 Oeste 0 -- -- 61
2020-03-05 13:00:00 8.4 24 Noroeste 50 Oeste 0 -- -- 65
2020-03-05 12:00:00 7.2 27 Oeste 52 Oeste 0.8 -- -- 80
2020-03-05 11:00:00 7.9 19 Sudoeste 42 Sudoeste 1.4 -- -- 93
2020-03-05 10:00:00 7.4 15 Sudoeste 51 Sudoeste 1.2 -- -- 93
2020-03-05 09:00:00 7.1 18 Sudoeste 44 Sudoeste 0.8 -- -- 92
2020-03-05 08:00:00 7.1 18 Sudoeste 51 Oeste 0 -- -- 90
2020-03-05 07:00:00 7.4 21 Sudoeste 47 Oeste 0.4 -- -- 91
2020-03-05 06:00:00 7.7 16 Sudoeste 38 Sudoeste 0.4 -- -- 91
2020-03-05 05:00:00 7.7 13 Sudoeste 30 Sur 0.2 -- -- 91
2020-03-05 04:00:00 8 11 Sudoeste 37 Oeste 0 -- -- 88
2020-03-05 03:00:00 8.3 15 Oeste 36 Oeste 0 -- -- 84
2020-03-05 02:00:00 8.3 12 Sudoeste 35 Oeste 0 -- -- 84
2020-03-05 01:00:00 8.6 10 Sudoeste 31 Sudeste 0 -- -- 78
2020-03-05 00:00:00 8.3 8 Sudoeste 22 Sudoeste 0 -- -- 80
2020-03-04 23:00:00 8.1 3 Sudoeste 17 Sudoeste 0 -- -- 83
2020-03-04 22:00:00 8.1 8 Sudoeste 18 Sur 0 -- -- 80
2020-03-04 21:00:00 7.2 4 Sur 14 Noroeste 0 -- -- 81
2020-03-04 20:00:00 8 5 Sudeste 27 Oeste 0 -- -- 76
2020-03-04 19:00:00 8.7 8 Oeste 25 Oeste 0 -- -- 75
2020-03-04 18:00:00 10.3 14 Oeste 38 Oeste 0 -- -- 69
2020-03-04 17:00:00 12.1 21 Oeste 36 Oeste 0 -- -- 64
2020-03-04 16:00:00 12.8 23 Oeste 43 Sudoeste 0 -- -- 61
2020-03-04 15:00:00 13.8 20 Sudoeste 36 Oeste 0 -- -- 61
2020-03-04 14:00:00 13.6 19 Oeste 36 Oeste 0 -- -- 60
2020-03-04 13:00:00 12.3 12 Norte 31 Noroeste 0 -- -- 59
2020-03-04 12:00:00 12.6 8 Norte 23 Sur 0 -- -- 62
2020-03-04 11:00:00 11.9 10 Sur 22 Sur 0 -- -- 77
2020-03-04 10:00:00 9.6 9 Sudeste 27 Oeste 0 -- -- 81
2020-03-04 09:00:00 8.7 14 Noroeste 25 Oeste 0 -- -- 86
2020-03-04 08:00:00 8.2 3 Sudeste 17 Sudeste 0 -- -- 85
2020-03-04 07:00:00 6.7 6 Sur 14 Sudeste 0 -- -- 91
2020-03-04 06:00:00 4.9 4 Sudeste 8 Oeste 0 -- -- 89
2020-03-04 05:00:00 4.4 3 Sudoeste 8 Norte 0 -- -- 82
2020-03-04 04:00:00 4.1 3 Norte 12 Sudeste 0 -- -- 79
2020-03-04 03:00:00 3.5 3 Noroeste 9 Sudeste 0 -- -- 85
2020-03-04 02:00:00 3.9 0 Calma 22 Oeste 0 -- -- 85
2020-03-04 01:00:00 4.6 3 Sudeste 9 Norte 0 -- -- 80
2020-03-04 00:00:00 6.5 5 Este 28 Noroeste 0 -- -- 72
2020-03-03 23:00:00 6.3 16 Noroeste 27 Noroeste 0 -- -- 81
2020-03-03 22:00:00 5.6 14 Noroeste 35 Noroeste 0 -- -- 87
2020-03-03 21:00:00 5.8 19 Noroeste 35 Noroeste 0 -- -- 87
2020-03-03 20:00:00 6.4 16 Norte 30 Noroeste 0 -- -- 87
2020-03-03 19:00:00 7.1 16 Noroeste 39 Norte 0 -- -- 83
2020-03-03 18:00:00 8.5 21 Norte 46 Norte 0.4 -- -- 76
2020-03-03 17:00:00 12 22 Noroeste 54 Noroeste 0 -- -- 55
2020-03-03 16:00:00 13.7 19 Noroeste 53 Oeste 0 -- -- 52
2020-03-03 15:00:00 12.7 28 Noroeste 74 Noroeste 0 -- -- 57
2020-03-03 14:00:00 11.7 29 Noroeste 82 Oeste 0.2 -- -- 59
2020-03-03 13:00:00 9.9 23 Oeste 48 Oeste 0 -- -- 71
2020-03-03 12:00:00 8.2 21 Oeste 45 Oeste 0 -- -- 76
2020-03-03 11:00:00 6.7 20 Oeste 45 Oeste 0 -- -- 79
2020-03-03 10:00:00 4.1 19 Oeste 46 Sudoeste 1 -- -- 83
2020-03-03 09:00:00 1.9 17 Oeste 53 Sudoeste 0.2 -- -- 90
2020-03-03 08:00:00 0.2 6 Sudeste 19 Sudeste 0 -- -- 94
2020-03-03 07:00:00 0.3 4 Sudeste 16 Sudoeste 0 -- -- 92
2020-03-03 06:00:00 0.9 9 Sudoeste 23 Sudoeste 0 -- -- 87
2020-03-03 05:00:00 1.1 12 Sudoeste 28 Oeste 0 -- -- 82
2020-03-03 04:00:00 0.8 13 Sudoeste 28 Sudoeste 0 -- -- 80
2020-03-03 03:00:00 0.9 13 Sudoeste 34 Sudoeste 0 -- -- 74
2020-03-03 02:00:00 0.7 6 Sur 28 Noroeste 0 -- -- 72
2020-03-03 01:00:00 0.7 15 Noroeste 34 Oeste 0 -- -- 71
2020-03-03 00:00:00 0.4 10 Noroeste 35 Noroeste 0 -- -- 71
2020-03-02 23:00:00 0.2 14 Noroeste 33 Noroeste 0 -- -- 72
2020-03-02 22:00:00 0.2 14 Noroeste 41 Noroeste 0 -- -- 71
2020-03-02 21:00:00 0.2 13 Noroeste 29 Noroeste 0 -- -- 75
2020-03-02 20:00:00 0.1 5 Norte 20 Noroeste 0 -- -- 86
2020-03-02 19:00:00 0.5 14 Noroeste 30 Norte 0 -- -- 85
2020-03-02 18:00:00 1.4 19 Norte 43 Norte 0.4 -- -- 79
2020-03-02 17:00:00 1.8 24 Norte 49 Norte 1.6 -- -- 85
2020-03-02 16:00:00 1.7 25 Noroeste 45 Norte 1.4 -- -- 89
2020-03-02 15:00:00 0.4 9 Noroeste 25 Noroeste 0.2 -- -- 92
2020-03-02 14:00:00 0.5 17 Noroeste 31 Norte 0.6 -- -- 92
2020-03-02 13:00:00 0.1 15 Norte 48 Norte 0.2 -- -- 91
2020-03-02 12:00:00 3.1 21 Norte 41 Noroeste 0 -- -- 79
2020-03-02 11:00:00 4.4 21 Noroeste 40 Noroeste 0 -- -- 72
2020-03-02 10:00:00 3.1 18 Noroeste 39 Noroeste 0.4 -- -- 86
2020-03-02 09:00:00 2.4 17 Noroeste 64 Noroeste 0.4 -- -- 89
2020-03-02 08:00:00 3.9 27 Noroeste 56 Oeste 0 -- -- 76
2020-03-02 07:00:00 4.6 25 Noroeste 59 Noroeste 0.6 -- -- 78
2020-03-02 06:00:00 5.6 24 Oeste 77 Oeste 6.4 -- -- 87
2020-03-02 05:00:00 7 32 Sudoeste 72 Sudoeste 3 -- -- 92
2020-03-02 04:00:00 7 27 Sudoeste 60 Sudoeste 2.8 -- -- 93
2020-03-02 03:00:00 6.9 30 Sudoeste 86 Oeste 3.6 -- -- 93
2020-03-02 02:00:00 6.8 36 Sudoeste 89 Sudoeste 4.4 -- -- 92
2020-03-02 01:00:00 6.6 24 Sudoeste 53 Sudoeste 4.6 -- -- 93
2020-03-02 00:00:00 6.1 21 Sudoeste 64 Sudoeste 6.2 -- -- 93
2020-03-01 23:00:00 6 32 Sudoeste 58 Sudoeste 3.8 -- -- 92
2020-03-01 22:00:00 5.5 13 Sudoeste 53 Sudoeste 1.8 -- -- 87
2020-03-01 21:00:00 7.2 14 Sudoeste 36 Sudoeste 0 -- -- 70
2020-03-01 20:00:00 6.6 14 Sudoeste 39 Oeste 0 -- -- 73
2020-03-01 19:00:00 7.3 7 Sur 28 Sudoeste 0.2 -- -- 81
2020-03-01 18:00:00 8.1 5 Sudoeste 37 Oeste 1.6 -- -- 81
2020-03-01 17:00:00 10.4 13 Sudoeste 40 Oeste 0 -- -- 60
2020-03-01 16:00:00 11.1 20 Oeste 45 Sudoeste 0 -- -- 52
2020-03-01 15:00:00 10.9 30 Oeste 59 Oeste 0 -- -- 48
2020-03-01 14:00:00 10.3 36 Oeste 68 Oeste 0 -- -- 52
2020-03-01 13:00:00 9.8 27 Oeste 58 Oeste 0 -- -- 60
2020-03-01 12:00:00 9.1 26 Oeste 55 Oeste 0 -- -- 65
2020-03-01 11:00:00 7.7 18 Oeste 50 Oeste 0.2 -- -- 73
2020-03-01 10:00:00 5.6 15 Oeste 44 Sudoeste 0.4 -- -- 86
2020-03-01 09:00:00 4.6 14 Sudoeste 41 Sudoeste 0 -- -- 87
2020-03-01 08:00:00 4 21 Oeste 41 Oeste 0 -- -- 84
2020-03-01 07:00:00 3.9 15 Oeste 48 Oeste 0 -- -- 79
2020-03-01 06:00:00 3.6 9 Sur 29 Oeste 0.2 -- -- 86
2020-03-01 05:00:00 3.8 10 Sudoeste 27 Noroeste 0 -- -- 85
2020-03-01 04:00:00 3.9 7 Sur 33 Sur 0.2 -- -- 86
2020-03-01 03:00:00 4 9 Sur 31 Sudoeste 0 -- -- 84
2020-03-01 02:00:00 4 9 Sudoeste 26 Oeste 0 -- -- 81
2020-03-01 01:00:00 4.5 11 Oeste 35 Oeste 0 -- -- 74
2020-03-01 00:00:00 4.5 18 Oeste 36 Oeste 0 -- -- 68
2020-02-29 23:00:00 4.9 17 Oeste 39 Oeste 0 -- -- 66
2020-02-29 22:00:00 5.2 17 Oeste 48 Oeste 0 -- -- 64
2020-02-29 21:00:00 5.5 18 Noroeste 45 Oeste 0 -- -- 65
2020-02-29 20:00:00 5.9 19 Oeste 44 Oeste 0 -- -- 62
2020-02-29 19:00:00 6.9 18 Oeste 39 Oeste 0 -- -- 63
2020-02-29 18:00:00 8.5 20 Oeste 38 Oeste 0 -- -- 63
2020-02-29 17:00:00 9.8 10 Oeste 36 Sudoeste 0 -- -- 69
2020-02-29 16:00:00 9.3 16 Oeste 42 Sudoeste 0.4 -- -- 79
2020-02-29 15:00:00 9.5 19 Oeste 45 Sudoeste 0 -- -- 76
2020-02-29 14:00:00 9 4 Sudoeste 46 Sudoeste 0.4 -- -- 86
2020-02-29 13:00:00 9.1 18 Sudoeste 39 Sudoeste 0 -- -- 80
2020-02-29 12:00:00 7.5 16 Sudoeste 39 Sudoeste 0.2 -- -- 87
2020-02-29 11:00:00 6.4 15 Sudoeste 62 Sudoeste 0.2 -- -- 84
2020-02-29 10:00:00 8.3 27 Sudoeste 52 Sudoeste 0 -- -- 64
2020-02-29 09:00:00 6.7 11 Sur 39 Sudoeste 0 -- -- 57
2020-02-29 08:00:00 6.1 16 Sudoeste 40 Sudoeste 0 -- -- 51
2020-02-29 07:00:00 6.7 6 Sudoeste 43 Sudoeste 0 -- -- 55
2020-02-29 06:00:00 7.3 18 Sudoeste 58 Sudoeste 0 -- -- 57
2020-02-29 05:00:00 6.6 20 Sudoeste 46 Sudoeste 0 -- -- 61
2020-02-29 04:00:00 5.7 16 Sudoeste 31 Sudoeste 0 -- -- 61
2020-02-29 03:00:00 6.4 13 Sudoeste 32 Sur 0 -- -- 58
2020-02-29 02:00:00 6.3 15 Sudoeste 34 Sudoeste 0 -- -- 59
2020-02-29 01:00:00 5.7 10 Sudoeste 26 Sur 0 -- -- 62
2020-02-29 00:00:00 5.1 10 Sudoeste 21 Sur 0 -- -- 67
2020-02-28 23:00:00 4.1 4 Norte 11 Sur 0 -- -- 66
2020-02-28 22:00:00 7.9 6 Sudeste 24 Sur 0 -- -- 55
2020-02-28 21:00:00 8.4 6 Sur 20 Sur 0 -- -- 51
2020-02-28 20:00:00 6.5 4 Norte 9 Nordeste 0 -- -- 53
2020-02-28 19:00:00 10.1 0 Calma 13 Sudoeste 0 -- -- 39
2020-02-28 18:00:00 12.8 9 Sudoeste 19 Sudoeste 0 -- -- 35
2020-02-28 17:00:00 13.9 11 Sur 22 Sur 0 -- -- 33
2020-02-28 16:00:00 15.8 13 Sudoeste 30 Sudoeste 0 -- -- 34
2020-02-28 15:00:00 15.8 9 Sudoeste 24 Sudoeste 0 -- -- 34
2020-02-28 14:00:00 13.8 12 Sur 21 Sudeste 0 -- -- 45
2020-02-28 13:00:00 11.2 15 Sudeste 24 Sudeste 0 -- -- 52
2020-02-28 12:00:00 11.4 8 Sur 12 Sudeste 0 -- -- 57
2020-02-28 11:00:00 8.3 7 Sudeste 11 Sudeste 0 -- -- 62
2020-02-28 10:00:00 5.9 4 Sur 8 Norte 0 -- -- 75
2020-02-28 09:00:00 2.1 6 Norte 14 Norte 0 -- -- 86
2020-02-28 08:00:00 -0.4 10 Norte 14 Norte 0 -- -- 90
2020-02-28 07:00:00 -1 3 Norte 9 Norte 0 -- -- 87
2020-02-28 06:00:00 -0.3 9 Norte 14 Norte 0 -- -- 86
2020-02-28 05:00:00 -0.7 7 Norte 12 Norte 0 -- -- 88
2020-02-28 04:00:00 -0.6 6 Norte 10 Norte 0 -- -- 89
2020-02-28 03:00:00 -0.2 6 Norte 11 Norte 0 -- -- 87
2020-02-28 02:00:00 0.8 5 Norte 12 Noroeste 0 -- -- 84
2020-02-28 01:00:00 1.8 9 Norte 12 Norte 0 -- -- 81
2020-02-28 00:00:00 2.7 5 Norte 12 Norte 0 -- -- 75